Latest Coastal Weather Observations for Low Rocky Point

IDT60701

Issued at 10:25 pm EDT Saturday 25 October 2014 (issued every 10 minutes, with the page automatically refreshed every 10 minutes)

About coastal observations | Map of coastal stations | Coastal observations for TAS | Marine services | Other Formats
Station Details ID: 097080 Name: LOW ROCKY POINT Lat: -42.98 Lon: 145.50 Height: 34.0 m
Data from the previous 72 hours. | See also: Recent months at Low Rocky Point
Date/Time
EDT
Temp

°C
Wind Pressure Rain
since 9am
mm
Weather Cloud Vis
km
Sea
Height
m
Swell
Dir
 
Speed
knots
Gust
knots
hPa Trend Height
m
Period
s
Dir
25/10:00pm 10.9 SE 15 19 1016.3 - 0.0 - - - - - - -
25/09:30pm 11.0 SE 16 20 1015.8 - 0.0 - - - - - - -
25/09:00pm 10.9 SSE 15 20 1016.2 - 0.0 - - - - - - -
25/08:30pm 10.8 SSE 15 19 1016.4 - 0.0 - - - - - - -
25/08:00pm 10.7 SSE 17 22 1015.6 - 0.0 - - - - - - -
25/07:30pm 10.8 SSE 16 20 1015.9 - 0.0 - - - - - - -
25/07:00pm 10.9 SSE 15 19 1016.4 - 0.0 - - - - - - -
25/06:30pm 11.2 SSE 15 20 1016.6 - 0.0 - - - - - - -
25/06:00pm 11.8 SSE 15 20 1017.0 - 0.0 - - - - - - -
25/05:30pm 13.5 S 15 19 1016.8 - 0.0 - - - - - - -
25/05:00pm 13.7 S 15 20 1016.6 - 0.0 - - - - - - -
25/04:30pm 14.0 S 13 19 1016.6 - 0.0 - - - - - - -
25/04:00pm 14.8 S 13 17 1016.6 - 0.0 - - - - - - -
25/03:30pm 15.5 S 12 16 1017.1 - 0.0 - - - - - - -
25/03:00pm 15.6 SSE 11 14 1016.9 - 0.0 - - - - - - -
25/02:30pm 15.4 SSE 11 14 1017.4 - 0.0 - - - - - - -
25/02:00pm 16.0 SSE 11 15 1017.4 - 0.0 - - - - - - -
25/01:30pm 15.1 SSE 10 13 1017.5 - 0.0 - - - - - - -
25/01:00pm 14.4 S 7 11 1017.7 - 0.0 - - - - - - -
25/12:30pm 14.4 S 8 10 1017.9 - 0.0 - - - - - - -
25/12:00pm 14.4 W 6 8 1018.0 - 0.0 - - - - - - -
25/11:30am 13.3 WSW 7 10 1018.1 - 0.0 - - - - - - -
25/11:00am 12.6 W 5 7 1018.2 - 0.0 - - - - - - -
25/10:30am 12.6 WSW 5 7 1018.0 - 0.0 - - - - - - -
25/10:00am 13.5 WNW 7 8 1017.6 - 0.0 - - - - - - -
25/09:30am 12.1 W 5 8 1017.4 - 0.0 - - - - - - -
25/09:00am 12.0 SSW 7 11 1017.1 - 0.0 - - - - - - -
25/08:30am 11.8 S 6 8 1017.0 - 0.0 - - - - - - -
25/08:00am 11.6 WSW 8 12 1016.3 - 0.0 - - - - - - -
25/07:30am 11.6 WSW 8 11 1016.1 - 0.0 - - - - - - -
25/07:00am 11.3 W 10 11 1015.7 - 0.0 - - - - - - -
25/06:30am 11.7 SW 11 15 1015.2 - 0.0 - - - - - - -
25/06:00am 12.0 SW 11 14 1014.3 - 0.0 - - - - - - -
25/05:30am 12.2 SW 6 8 1013.9 - 0.0 - - - - - - -
25/05:00am 12.1 SW 11 14 1013.5 - 0.0 - - - - - - -
25/04:30am 12.4 WSW 10 15 1013.3 - 0.0 - - - - - - -
25/04:00am 12.4 SW 12 17 1013.4 - 0.0 - - - - - - -
25/03:30am 12.6 WSW 11 15 1013.0 - 0.0 - - - - - - -
25/03:00am 12.7 WSW 12 16 1012.7 - 0.0 - - - - - - -
25/02:30am 12.6 W 13 15 1012.3 - 0.0 - - - - - - -
25/02:00am 12.9 W 12 14 1012.0 - 0.0 - - - - - - -
25/01:30am 13.1 W 12 16 1012.0 - 0.0 - - - - - - -
25/01:00am 13.2 W 13 17 1011.8 - 0.0 - - - - - - -
25/12:30am 13.3 W 15 18 1011.6 - 0.0 - - - - - - -
25/12:00am 13.3 W 14 16 1011.3 - 0.0 - - - - - - -
 
Date/Time
EDT
Temp

°C
Wind Pressure Rain
since 9am
mm
Weather Cloud Vis
km
Sea
Height
m
Swell
Dir
 
Speed
knots
Gust
knots
hPa Trend Height
m
Period
s
Dir
24/11:30pm 13.3 W 15 19 1011.0 - 0.0 - - - - - - -
24/11:00pm 13.5 WNW 14 17 1010.7 - 0.0 - - - - - - -
24/10:30pm 14.2 NW 11 14 1010.5 - 0.0 - - - - - - -
24/10:00pm 14.4 NW 13 15 1010.3 - 0.0 - - - - - - -
24/09:30pm 14.6 NW 9 11 1009.9 - 0.0 - - - - - - -
24/09:00pm 14.3 NNW 8 11 1009.3 - 0.0 - - - - - - -
24/08:30pm 14.2 NNW 8 9 1009.3 - 0.0 - - - - - - -
24/08:00pm 14.4 NNW 7 9 1009.2 - 0.0 - - - - - - -
24/07:30pm 14.0 WNW 4 5 1009.1 - 0.0 - - - - - - -
24/07:00pm 14.2 WSW 4 6 1008.8 - 0.0 - - - - - - -
24/06:30pm 14.5 WSW 7 11 1008.6 - 0.0 - - - - - - -
24/06:00pm 16.8 N 2 5 1007.6 - 0.0 - - - - - - -
24/05:30pm 14.3 ESE 9 12 1006.7 - 0.0 - - - - - - -
24/05:00pm 14.6 E 11 14 1007.8 - 0.0 - - - - - - -
24/04:30pm 15.3 ESE 7 9 1009.4 - 0.0 - - - - - - -
24/04:00pm 15.0 SSE 6 7 1009.8 - 0.0 - - - - - - -
24/03:30pm 15.1 SSE 6 8 1009.6 - 0.0 - - - - - - -
24/03:00pm 17.1 SSE 9 11 1009.7 - 0.0 - - - - - - -
24/02:30pm 18.1 S 10 12 1009.8 - 0.0 - - - - - - -
24/02:00pm 17.6 SSW 10 16 1010.5 - 0.0 - - - - - - -
24/01:30pm 18.1 SW 11 14 1010.5 - 0.0 - - - - - - -
24/01:00pm 17.4 SSW 9 13 1010.9 - 0.0 - - - - - - -
24/12:30pm 18.1 SSW 8 11 1011.5 - 0.0 - - - - - - -
24/12:00pm 17.4 SSW 8 11 1012.3 - 0.0 - - - - - - -
24/11:30am 16.5 SSW 7 8 1013.0 - 0.0 - - - - - - -
24/11:00am 14.8 W 7 8 1013.9 - 0.0 - - - - - - -
24/10:30am 14.8 WNW 6 7 1014.2 - 0.0 - - - - - - -
24/10:00am 14.6 NW 9 11 1015.0 - 0.0 - - - - - - -
24/09:30am 13.7 NW 10 11 1015.0 - 0.0 - - - - - - -
24/09:00am 13.9 NW 8 10 1015.4 - 0.0 - - - - - - -
24/08:30am 12.9 NNE 10 13 1015.5 - 0.0 - - - - - - -
24/08:00am 11.6 NE 9 11 1015.6 - 0.0 - - - - - - -
24/07:30am 10.3 NNE 10 14 1015.9 - 0.0 - - - - - - -
24/07:00am 8.8 NE 10 12 1016.1 - 0.0 - - - - - - -
24/06:30am 8.0 NNE 11 13 1016.4 - 0.0 - - - - - - -
24/06:00am 8.0 N 6 8 1016.5 - 0.0 - - - - - - -
24/05:30am 8.7 NE 8 9 1016.4 - 0.0 - - - - - - -
24/05:00am 9.0 NE 9 11 1016.6 - 0.0 - - - - - - -
24/04:30am 9.5 NE 12 15 1017.4 - 0.0 - - - - - - -
24/04:00am 9.9 NNE 12 14 1018.0 - 0.0 - - - - - - -
24/03:30am 10.1 NNE 12 14 1018.6 - 0.0 - - - - - - -
24/03:00am 10.0 NNE 11 13 1019.1 - 0.0 - - - - - - -
24/02:30am 10.6 N 6 11 1019.3 - 0.0 - - - - - - -
24/02:00am 11.2 NE 11 13 1019.8 - 0.0 - - - - - - -
24/01:30am 11.5 NNE 12 14 1020.0 - 0.0 - - - - - - -
24/01:00am 11.5 NNE 13 15 1020.2 - 0.0 - - - - - - -
24/12:30am 11.7 NNE 11 13 1020.7 - 0.0 - - - - - - -
24/12:00am 11.9 NNE 12 15 1020.8 - 0.0 - - - - - - -
 
Date/Time
EDT
Temp

°C
Wind Pressure Rain
since 9am
mm
Weather Cloud Vis
km
Sea
Height
m
Swell
Dir
 
Speed
knots
Gust
knots
hPa Trend Height
m
Period
s
Dir
23/11:30pm 12.2 N 12 15 1021.1 - 0.0 - - - - - - -
23/11:00pm 13.1 N 12 14 1021.0 - 0.0 - - - - - - -
23/10:30pm 12.6 N 12 15 1021.0 - 0.0 - - - - - - -
23/10:00pm 10.8 N 9 11 1021.0 - 0.0 - - - - - - -
23/09:30pm 11.4 NNW 9 11 1020.9 - 0.0 - - - - - - -
23/09:00pm 11.1 N 8 9 1020.7 - 0.0 - - - - - - -
23/08:30pm 11.4 NE 5 7 1020.5 - 0.0 - - - - - - -
23/08:00pm 12.6 N 2 5 1020.6 - 0.0 - - - - - - -
23/07:30pm 13.1 ENE 5 7 1020.7 - 0.0 - - - - - - -
23/07:00pm 13.8 SE 14 18 1020.0 - 0.0 - - - - - - -
23/06:30pm 13.7 SSE 19 24 1020.1 - 0.0 - - - - - - -
23/06:00pm 13.9 SSE 21 27 1020.4 - 0.0 - - - - - - -
23/05:30pm 14.2 SSE 21 27 1020.7 - 0.0 - - - - - - -
23/05:00pm 14.5 SSE 22 28 1020.9 - 0.0 - - - - - - -
23/04:30pm 14.8 SSE 20 26 1021.0 - 0.0 - - - - - - -
23/04:00pm 15.0 SSE 20 26 1021.2 - 0.0 - - - - - - -
23/03:30pm 15.4 SSE 20 25 1021.3 - 0.0 - - - - - - -
23/03:00pm 15.8 SSE 17 23 1021.4 - 0.0 - - - - - - -
23/02:30pm 15.3 SSE 20 27 1021.7 - 0.0 - - - - - - -
23/02:00pm 15.7 SSE 20 27 1021.9 - 0.0 - - - - - - -
23/01:30pm 15.1 SSE 20 26 1022.1 - 0.0 - - - - - - -
23/01:00pm 15.0 SSE 20 26 1022.5 - 0.0 - - - - - - -
23/12:30pm 15.0 SSE 21 27 1022.9 - 0.0 - - - - - - -
23/12:00pm 14.5 SSE 20 25 1023.3 - 0.0 - - - - - - -
23/11:30am 14.7 SSE 18 23 1023.7 - 0.0 - - - - - - -
23/11:00am 14.4 SSE 18 23 1024.0 - 0.0 - - - - - - -
23/10:30am 13.9 SSE 17 21 1024.2 - 0.0 - - - - - - -
23/10:00am 13.5 SE 16 20 1024.3 - 0.0 - - - - - - -
23/09:30am 12.9 SE 16 21 1024.3 - 0.0 - - - - - - -
23/09:00am 12.4 SE 16 22 1024.3 - 0.4 - - - - - - -
23/08:30am 11.7 SE 19 25 1024.3 - 0.4 - - - - - - -
23/08:00am 11.5 SE 18 24 1024.2 - 0.4 - - - - - - -
23/07:30am 10.9 SE 19 24 1024.1 - 0.4 - - - - - - -
23/07:00am 10.2 SE 18 23 1023.7 - 0.4 - - - - - - -
23/06:30am 10.1 SE 18 23 1023.5 - 0.4 - - - - - - -
23/06:00am 10.3 SE 18 24 1023.2 - 0.4 - - - - - - -
23/05:30am 10.6 SE 16 20 1023.0 - 0.4 - - - - - - -
23/05:00am 10.3 SE 17 23 1022.6 - 0.4 - - - - - - -
23/04:30am 10.6 SE 17 22 1022.4 - 0.4 - - - - - - -
23/04:00am 10.6 SE 17 22 1022.2 - 0.4 - - - - - - -
23/03:30am 10.7 SE 17 23 1022.1 - 0.4 - - - - - - -
23/03:00am 10.9 SE 20 26 1022.1 - 0.4 - - - - - - -
23/02:30am 10.7 SE 21 27 1022.1 - 0.4 - - - - - - -
23/02:00am 10.7 SE 21 27 1022.3 - 0.4 - - - - - - -
23/01:30am 10.8 SSE 20 27 1022.3 - 0.4 - - - - - - -
23/01:00am 10.7 SSE 20 25 1022.2 - 0.4 - - - - - - -
23/12:30am 10.8 SSE 19 25 1022.1 - 0.4 - - - - - - -
23/12:00am 10.9 SSE 22 29 1021.8 - 0.4 Recent precip. - - - - - -
 
Date/Time
EDT
Temp

°C
Wind Pressure Rain
since 9am
mm
Weather Cloud Vis
km
Sea
Height
m
Swell
Dir
 
Speed
knots
Gust
knots
hPa Trend Height
m
Period
s
Dir
22/11:30pm 11.0 S 21 30 1021.8 - 0.2 - - - - - - -
22/11:00pm 11.5 S 21 27 1021.4 - 0.2 - - - - - - -
22/10:30pm 12.4 S 15 19 1021.0 - 0.0 - - - - - - -

Other Formats:

Comma delimited format used in spreadsheet applications
http://www.bom.gov.au/fwo/IDT60701/IDT60701.95961.axf

JavaScript Object Notation format (JSON) in row-major order
http://www.bom.gov.au/fwo/IDT60701/IDT60701.95961.json